CYQK

Details ICAO CYQK (YQK)
Name KENORA
Region Canada
Timezone America/Winnipeg (UTC-5.0)
Plans Departing 10
Arriving 7
Stats Elevation 1,332 ft / 406 m (AMSL)
Location 49.788329° -94.363189°
Runways 1
Magnetic Variation 0.518° E
Sunrise 2018-05-23 10:23:47 UTC / 2018-05-23 05:23:47 Local
Sunset 2018-05-24 02:07:32 UTC / 2018-05-23 21:07:32 Local
Advertisement - Login to hide

Runways

ID Width Length Bearing (true) Bearing (mag) Surface Threshold Offset Overrun Length
08 150 ft / 46 m 5,735 ft / 1,748 m 77.34° 76.82° Asphalt 0 ft / 0 m 0 ft / 0 m
26 150 ft / 46 m 5,735 ft / 1,748 m 257.36° 256.84° Asphalt 0 ft / 0 m 0 ft / 0 m

Map

Weather


0- 5 10 15 20 25 30 35+ Temperature / ° C

Clouds and Precipitation
Forecast for 2018-05-23 06:00 UTC. Updated 3 hours ago

Ground ~20,000 ft ~40,000 ft Winds

METAR

CYQK 230700Z 22003KT 15SM FEW240 17/08 A3003 RMK CI1 SLP172 DENSITY ALT 1800FT

TAF

TAF CYQK 230738Z 2308/2320 VRB03KT P6SM FEW240 BECMG 2316/2318 21012KT RMK NXT FCST BY 231400Z
Warning: Do not use this data for real-world aviation or navigation. No guarantee of current accuracy is given.